sensor_id;sensor_type;location;lat;lon;timestamp;P1;durP1;ratioP1;P2;durP2;ratioP2
7563;SDS011;3823;53.586;10.040;2024-02-21T00:00:47;46.22;;;21.73;;
7563;SDS011;3823;53.586;10.040;2024-02-21T00:03:13;33.40;;;17.50;;
7563;SDS011;3823;53.586;10.040;2024-02-21T00:05:39;36.53;;;16.73;;
7563;SDS011;3823;53.586;10.040;2024-02-21T00:08:05;39.63;;;19.67;;
7563;SDS011;3823;53.586;10.040;2024-02-21T00:10:35;36.10;;;19.23;;
7563;SDS011;3823;53.586;10.040;2024-02-21T00:13:01;37.42;;;17.33;;
7563;SDS011;3823;53.586;10.040;2024-02-21T00:15:29;37.40;;;19.13;;
7563;SDS011;3823;53.586;10.040;2024-02-21T00:17:57;45.13;;;19.42;;
7563;SDS011;3823;53.586;10.040;2024-02-21T00:20:26;52.92;;;19.88;;
7563;SDS011;3823;53.586;10.040;2024-02-21T00:22:57;38.08;;;18.30;;
7563;SDS011;3823;53.586;10.040;2024-02-21T00:25:26;47.55;;;19.23;;
7563;SDS011;3823;53.586;10.040;2024-02-21T00:27:52;34.17;;;17.75;;
7563;SDS011;3823;53.586;10.040;2024-02-21T00:30:23;41.42;;;19.42;;
7563;SDS011;3823;53.586;10.040;2024-02-21T00:32:48;38.65;;;19.80;;
7563;SDS011;3823;53.586;10.040;2024-02-21T00:35:14;42.13;;;18.17;;
7563;SDS011;3823;53.586;10.040;2024-02-21T00:37:40;40.20;;;20.35;;
7563;SDS011;3823;53.586;10.040;2024-02-21T00:40:06;36.95;;;17.65;;
7563;SDS011;3823;53.586;10.040;2024-02-21T00:42:32;41.42;;;18.00;;
7563;SDS011;3823;53.586;10.040;2024-02-21T00:44:57;40.33;;;19.67;;
7563;SDS011;3823;53.586;10.040;2024-02-21T00:47:43;35.67;;;19.85;;
7563;SDS011;3823;53.586;10.040;2024-02-21T00:50:09;39.63;;;18.80;;
7563;SDS011;3823;53.586;10.040;2024-02-21T00:52:35;41.17;;;20.48;;
7563;SDS011;3823;53.586;10.040;2024-02-21T00:55:00;39.45;;;19.10;;
7563;SDS011;3823;53.586;10.040;2024-02-21T00:57:28;45.35;;;19.67;;
7563;SDS011;3823;53.586;10.040;2024-02-21T00:59:57;41.70;;;17.52;;
7563;SDS011;3823;53.586;10.040;2024-02-21T01:02:22;34.65;;;17.80;;
7563;SDS011;3823;53.586;10.040;2024-02-21T01:04:53;35.92;;;20.65;;
7563;SDS011;3823;53.586;10.040;2024-02-21T01:07:18;45.50;;;22.73;;
7563;SDS011;3823;53.586;10.040;2024-02-21T01:09:44;45.63;;;21.00;;
7563;SDS011;3823;53.586;10.040;2024-02-21T01:12:10;42.28;;;20.30;;
7563;SDS011;3823;53.586;10.040;2024-02-21T01:14:35;39.40;;;18.75;;
7563;SDS011;3823;53.586;10.040;2024-02-21T01:17:03;40.10;;;21.00;;
7563;SDS011;3823;53.586;10.040;2024-02-21T01:19:31;39.80;;;20.27;;
7563;SDS011;3823;53.586;10.040;2024-02-21T01:21:59;39.17;;;20.13;;
7563;SDS011;3823;53.586;10.040;2024-02-21T01:24:28;36.17;;;20.90;;
7563;SDS011;3823;53.586;10.040;2024-02-21T01:26:53;42.97;;;19.92;;
7563;SDS011;3823;53.586;10.040;2024-02-21T01:29:22;42.63;;;21.27;;
7563;SDS011;3823;53.586;10.040;2024-02-21T01:31:51;38.47;;;19.90;;
7563;SDS011;3823;53.586;10.040;2024-02-21T01:34:17;39.05;;;21.73;;
7563;SDS011;3823;53.586;10.040;2024-02-21T01:36:57;47.75;;;22.23;;
7563;SDS011;3823;53.586;10.040;2024-02-21T01:39:26;37.10;;;19.42;;
7563;SDS011;3823;53.586;10.040;2024-02-21T01:41:52;43.47;;;22.08;;
7563;SDS011;3823;53.586;10.040;2024-02-21T01:44:18;40.40;;;21.27;;
7563;SDS011;3823;53.586;10.040;2024-02-21T01:46:43;42.28;;;20.05;;
7563;SDS011;3823;53.586;10.040;2024-02-21T01:49:17;39.70;;;21.45;;
7563;SDS011;3823;53.586;10.040;2024-02-21T01:51:47;45.88;;;20.45;;
7563;SDS011;3823;53.586;10.040;2024-02-21T01:54:14;41.05;;;20.85;;
7563;SDS011;3823;53.586;10.040;2024-02-21T01:56:41;40.78;;;22.42;;
7563;SDS011;3823;53.586;10.040;2024-02-21T01:59:08;44.53;;;23.45;;
7563;SDS011;3823;53.586;10.040;2024-02-21T02:01:39;42.15;;;21.55;;
7563;SDS011;3823;53.586;10.040;2024-02-21T02:04:17;43.47;;;22.15;;
7563;SDS011;3823;53.586;10.040;2024-02-21T02:06:45;50.15;;;23.80;;
7563;SDS011;3823;53.586;10.040;2024-02-21T02:09:11;44.13;;;22.85;;
7563;SDS011;3823;53.586;10.040;2024-02-21T02:11:39;42.10;;;22.95;;
7563;SDS011;3823;53.586;10.040;2024-02-21T02:14:05;44.97;;;22.85;;
7563;SDS011;3823;53.586;10.040;2024-02-21T02:16:32;43.40;;;22.35;;
7563;SDS011;3823;53.586;10.040;2024-02-21T02:18:58;49.63;;;24.88;;
7563;SDS011;3823;53.586;10.040;2024-02-21T02:21:29;49.20;;;23.55;;
7563;SDS011;3823;53.586;10.040;2024-02-21T02:23:57;43.85;;;22.05;;
7563;SDS011;3823;53.586;10.040;2024-02-21T02:26:24;43.83;;;24.70;;
7563;SDS011;3823;53.586;10.040;2024-02-21T02:28:49;50.63;;;23.70;;
7563;SDS011;3823;53.586;10.040;2024-02-21T02:31:15;41.35;;;22.88;;
7563;SDS011;3823;53.586;10.040;2024-02-21T02:33:43;44.35;;;24.10;;
7563;SDS011;3823;53.586;10.040;2024-02-21T02:36:09;42.88;;;24.95;;
7563;SDS011;3823;53.586;10.040;2024-02-21T02:38:40;51.33;;;25.42;;
7563;SDS011;3823;53.586;10.040;2024-02-21T02:41:06;49.80;;;23.90;;
7563;SDS011;3823;53.586;10.040;2024-02-21T02:43:31;44.60;;;23.92;;
7563;SDS011;3823;53.586;10.040;2024-02-21T02:45:57;46.30;;;25.20;;
7563;SDS011;3823;53.586;10.040;2024-02-21T02:48:22;52.70;;;25.95;;
7563;SDS011;3823;53.586;10.040;2024-02-21T02:50:48;49.38;;;23.00;;
7563;SDS011;3823;53.586;10.040;2024-02-21T02:53:14;62.13;;;26.88;;
7563;SDS011;3823;53.586;10.040;2024-02-21T02:55:40;51.97;;;24.85;;
7563;SDS011;3823;53.586;10.040;2024-02-21T02:58:05;45.20;;;23.88;;
7563;SDS011;3823;53.586;10.040;2024-02-21T03:00:31;54.25;;;27.45;;
7563;SDS011;3823;53.586;10.040;2024-02-21T03:03:01;47.47;;;24.30;;
7563;SDS011;3823;53.586;10.040;2024-02-21T03:05:28;43.40;;;22.98;;
7563;SDS011;3823;53.586;10.040;2024-02-21T03:07:54;44.15;;;25.58;;
7563;SDS011;3823;53.586;10.040;2024-02-21T03:10:20;45.25;;;24.08;;
7563;SDS011;3823;53.586;10.040;2024-02-21T03:12:46;54.92;;;27.52;;
7563;SDS011;3823;53.586;10.040;2024-02-21T03:15:12;46.33;;;23.85;;
7563;SDS011;3823;53.586;10.040;2024-02-21T03:17:38;51.40;;;25.63;;
7563;SDS011;3823;53.586;10.040;2024-02-21T03:20:04;44.20;;;22.88;;
7563;SDS011;3823;53.586;10.040;2024-02-21T03:22:30;51.03;;;25.63;;
7563;SDS011;3823;53.586;10.040;2024-02-21T03:24:57;48.78;;;23.52;;
7563;SDS011;3823;53.586;10.040;2024-02-21T03:27:23;46.90;;;23.25;;
7563;SDS011;3823;53.586;10.040;2024-02-21T03:29:48;50.65;;;24.38;;
7563;SDS011;3823;53.586;10.040;2024-02-21T03:32:14;44.30;;;24.80;;
7563;SDS011;3823;53.586;10.040;2024-02-21T03:34:39;44.92;;;22.52;;
7563;SDS011;3823;53.586;10.040;2024-02-21T03:37:05;46.35;;;24.75;;
7563;SDS011;3823;53.586;10.040;2024-02-21T03:39:39;48.45;;;22.83;;
7563;SDS011;3823;53.586;10.040;2024-02-21T03:42:11;42.83;;;23.25;;
7563;SDS011;3823;53.586;10.040;2024-02-21T03:44:49;45.25;;;24.00;;
7563;SDS011;3823;53.586;10.040;2024-02-21T03:50:25;50.22;;;24.15;;
7563;SDS011;3823;53.586;10.040;2024-02-21T03:52:52;48.38;;;23.73;;
7563;SDS011;3823;53.586;10.040;2024-02-21T03:55:42;41.35;;;22.55;;
7563;SDS011;3823;53.586;10.040;2024-02-21T03:58:11;43.65;;;23.38;;
7563;SDS011;3823;53.586;10.040;2024-02-21T04:00:37;40.17;;;22.10;;
7563;SDS011;3823;53.586;10.040;2024-02-21T04:03:20;47.35;;;23.63;;
7563;SDS011;3823;53.586;10.040;2024-02-21T04:05:48;40.20;;;22.20;;
7563;SDS011;3823;53.586;10.040;2024-02-21T04:08:15;51.50;;;25.23;;
7563;SDS011;3823;53.586;10.040;2024-02-21T04:10:44;41.70;;;22.33;;
7563;SDS011;3823;53.586;10.040;2024-02-21T04:13:18;41.58;;;21.65;;
7563;SDS011;3823;53.586;10.040;2024-02-21T04:15:54;41.17;;;23.10;;
7563;SDS011;3823;53.586;10.040;2024-02-21T04:18:33;47.60;;;22.52;;
7563;SDS011;3823;53.586;10.040;2024-02-21T04:21:02;48.40;;;21.75;;
7563;SDS011;3823;53.586;10.040;2024-02-21T04:23:30;51.28;;;24.73;;
7563;SDS011;3823;53.586;10.040;2024-02-21T04:25:56;42.65;;;22.88;;
7563;SDS011;3823;53.586;10.040;2024-02-21T04:28:40;47.55;;;22.70;;
7563;SDS011;3823;53.586;10.040;2024-02-21T04:31:14;36.58;;;20.85;;
7563;SDS011;3823;53.586;10.040;2024-02-21T04:34:11;43.40;;;22.38;;
7563;SDS011;3823;53.586;10.040;2024-02-21T04:36:59;38.70;;;20.58;;
7563;SDS011;3823;53.586;10.040;2024-02-21T04:39:40;44.55;;;21.88;;
7563;SDS011;3823;53.586;10.040;2024-02-21T04:42:05;44.50;;;20.92;;
7563;SDS011;3823;53.586;10.040;2024-02-21T04:44:34;35.97;;;20.27;;
7563;SDS011;3823;53.586;10.040;2024-02-21T04:47:02;38.95;;;21.40;;
7563;SDS011;3823;53.586;10.040;2024-02-21T04:49:31;41.17;;;20.13;;
7563;SDS011;3823;53.586;10.040;2024-02-21T04:52:10;32.13;;;19.38;;
7563;SDS011;3823;53.586;10.040;2024-02-21T04:54:38;39.08;;;19.95;;
7563;SDS011;3823;53.586;10.040;2024-02-21T04:57:08;37.85;;;19.65;;
7563;SDS011;3823;53.586;10.040;2024-02-21T05:02:01;34.90;;;19.48;;
7563;SDS011;3823;53.586;10.040;2024-02-21T05:04:26;31.48;;;16.63;;
7563;SDS011;3823;53.586;10.040;2024-02-21T05:06:52;35.38;;;19.77;;
7563;SDS011;3823;53.586;10.040;2024-02-21T05:09:17;35.33;;;17.85;;
7563;SDS011;3823;53.586;10.040;2024-02-21T05:11:43;30.05;;;15.65;;
7563;SDS011;3823;53.586;10.040;2024-02-21T05:14:08;28.95;;;16.88;;
7563;SDS011;3823;53.586;10.040;2024-02-21T05:16:34;26.77;;;15.18;;
7563;SDS011;3823;53.586;10.040;2024-02-21T05:18:59;24.98;;;15.15;;
7563;SDS011;3823;53.586;10.040;2024-02-21T05:21:25;27.02;;;15.15;;
7563;SDS011;3823;53.586;10.040;2024-02-21T05:23:52;26.95;;;14.25;;
7563;SDS011;3823;53.586;10.040;2024-02-21T05:26:24;22.65;;;13.82;;
7563;SDS011;3823;53.586;10.040;2024-02-21T05:28:50;22.30;;;14.10;;
7563;SDS011;3823;53.586;10.040;2024-02-21T05:31:19;28.80;;;15.90;;
7563;SDS011;3823;53.586;10.040;2024-02-21T05:33:46;26.38;;;14.02;;
7563;SDS011;3823;53.586;10.040;2024-02-21T05:36:12;25.02;;;14.05;;
7563;SDS011;3823;53.586;10.040;2024-02-21T05:38:38;20.50;;;12.98;;
7563;SDS011;3823;53.586;10.040;2024-02-21T05:41:04;17.45;;;11.73;;
7563;SDS011;3823;53.586;10.040;2024-02-21T05:43:29;20.42;;;12.02;;
7563;SDS011;3823;53.586;10.040;2024-02-21T05:45:55;22.33;;;11.45;;
7563;SDS011;3823;53.586;10.040;2024-02-21T05:48:24;24.40;;;13.30;;
7563;SDS011;3823;53.586;10.040;2024-02-21T05:50:50;18.27;;;11.77;;
7563;SDS011;3823;53.586;10.040;2024-02-21T05:53:15;17.02;;;10.60;;
7563;SDS011;3823;53.586;10.040;2024-02-21T05:55:41;16.25;;;9.93;;
7563;SDS011;3823;53.586;10.040;2024-02-21T05:58:07;13.27;;;9.43;;
7563;SDS011;3823;53.586;10.040;2024-02-21T06:00:35;12.98;;;8.90;;
7563;SDS011;3823;53.586;10.040;2024-02-21T06:03:00;14.00;;;8.68;;
7563;SDS011;3823;53.586;10.040;2024-02-21T06:05:27;10.48;;;8.27;;
7563;SDS011;3823;53.586;10.040;2024-02-21T06:07:53;11.48;;;8.68;;
7563;SDS011;3823;53.586;10.040;2024-02-21T06:10:18;9.50;;;7.05;;
7563;SDS011;3823;53.586;10.040;2024-02-21T06:12:44;12.48;;;8.10;;
7563;SDS011;3823;53.586;10.040;2024-02-21T06:15:09;13.02;;;8.15;;
7563;SDS011;3823;53.586;10.040;2024-02-21T06:17:35;14.02;;;8.25;;
7563;SDS011;3823;53.586;10.040;2024-02-21T06:20:00;11.43;;;7.70;;
7563;SDS011;3823;53.586;10.040;2024-02-21T06:22:26;11.05;;;5.93;;
7563;SDS011;3823;53.586;10.040;2024-02-21T06:24:51;6.82;;;4.63;;
7563;SDS011;3823;53.586;10.040;2024-02-21T06:27:19;5.00;;;4.22;;
7563;SDS011;3823;53.586;10.040;2024-02-21T06:29:44;8.70;;;4.82;;
7563;SDS011;3823;53.586;10.040;2024-02-21T06:32:10;7.40;;;4.55;;
7563;SDS011;3823;53.586;10.040;2024-02-21T06:34:35;7.13;;;5.03;;
7563;SDS011;3823;53.586;10.040;2024-02-21T06:37:01;8.02;;;5.38;;
7563;SDS011;3823;53.586;10.040;2024-02-21T06:39:26;6.97;;;5.20;;
7563;SDS011;3823;53.586;10.040;2024-02-21T06:41:53;7.60;;;5.80;;
7563;SDS011;3823;53.586;10.040;2024-02-21T06:44:19;8.13;;;5.53;;
7563;SDS011;3823;53.586;10.040;2024-02-21T06:46:46;8.68;;;5.70;;
7563;SDS011;3823;53.586;10.040;2024-02-21T06:49:11;8.55;;;6.60;;
7563;SDS011;3823;53.586;10.040;2024-02-21T06:51:44;9.10;;;5.68;;
7563;SDS011;3823;53.586;10.040;2024-02-21T06:54:09;7.07;;;5.80;;
7563;SDS011;3823;53.586;10.040;2024-02-21T06:56:35;5.45;;;4.63;;
7563;SDS011;3823;53.586;10.040;2024-02-21T06:59:01;5.97;;;4.65;;
7563;SDS011;3823;53.586;10.040;2024-02-21T07:01:28;8.75;;;5.38;;
7563;SDS011;3823;53.586;10.040;2024-02-21T07:03:54;4.45;;;4.03;;
7563;SDS011;3823;53.586;10.040;2024-02-21T07:06:19;5.72;;;4.30;;
7563;SDS011;3823;53.586;10.040;2024-02-21T07:08:45;6.35;;;4.25;;
7563;SDS011;3823;53.586;10.040;2024-02-21T07:11:11;7.32;;;4.53;;
7563;SDS011;3823;53.586;10.040;2024-02-21T07:13:36;5.18;;;3.83;;
7563;SDS011;3823;53.586;10.040;2024-02-21T07:16:02;4.93;;;4.07;;
7563;SDS011;3823;53.586;10.040;2024-02-21T07:18:27;7.18;;;4.95;;
7563;SDS011;3823;53.586;10.040;2024-02-21T07:20:53;9.45;;;5.70;;
7563;SDS011;3823;53.586;10.040;2024-02-21T07:23:18;8.35;;;5.72;;
7563;SDS011;3823;53.586;10.040;2024-02-21T07:25:44;6.15;;;4.93;;
7563;SDS011;3823;53.586;10.040;2024-02-21T07:28:10;7.82;;;6.10;;
7563;SDS011;3823;53.586;10.040;2024-02-21T07:30:35;8.13;;;6.35;;
7563;SDS011;3823;53.586;10.040;2024-02-21T07:33:01;8.57;;;5.65;;
7563;SDS011;3823;53.586;10.040;2024-02-21T07:35:27;9.85;;;5.93;;
7563;SDS011;3823;53.586;10.040;2024-02-21T07:37:52;15.15;;;6.03;;
7563;SDS011;3823;53.586;10.040;2024-02-21T07:40:18;6.65;;;5.53;;
7563;SDS011;3823;53.586;10.040;2024-02-21T07:42:43;7.75;;;6.25;;
7563;SDS011;3823;53.586;10.040;2024-02-21T07:45:10;7.97;;;5.68;;
7563;SDS011;3823;53.586;10.040;2024-02-21T07:47:36;7.65;;;5.53;;
7563;SDS011;3823;53.586;10.040;2024-02-21T07:50:03;7.53;;;5.93;;
7563;SDS011;3823;53.586;10.040;2024-02-21T07:52:29;8.88;;;6.85;;
7563;SDS011;3823;53.586;10.040;2024-02-21T07:54:54;9.57;;;5.35;;
7563;SDS011;3823;53.586;10.040;2024-02-21T07:57:20;9.27;;;4.55;;
7563;SDS011;3823;53.586;10.040;2024-02-21T07:59:45;5.38;;;4.20;;
7563;SDS011;3823;53.586;10.040;2024-02-21T08:02:13;7.22;;;4.82;;
7563;SDS011;3823;53.586;10.040;2024-02-21T08:04:39;5.85;;;4.72;;
7563;SDS011;3823;53.586;10.040;2024-02-21T08:07:04;9.82;;;4.72;;
7563;SDS011;3823;53.586;10.040;2024-02-21T08:09:30;8.05;;;5.03;;
7563;SDS011;3823;53.586;10.040;2024-02-21T08:11:55;7.20;;;4.47;;
7563;SDS011;3823;53.586;10.040;2024-02-21T08:14:21;8.48;;;4.35;;
7563;SDS011;3823;53.586;10.040;2024-02-21T08:16:47;8.43;;;4.20;;
7563;SDS011;3823;53.586;10.040;2024-02-21T08:19:13;18.98;;;4.78;;
7563;SDS011;3823;53.586;10.040;2024-02-21T08:21:39;8.52;;;3.92;;
7563;SDS011;3823;53.586;10.040;2024-02-21T08:24:04;12.27;;;4.93;;
7563;SDS011;3823;53.586;10.040;2024-02-21T08:26:30;16.63;;;6.47;;
7563;SDS011;3823;53.586;10.040;2024-02-21T08:28:59;11.48;;;4.00;;
7563;SDS011;3823;53.586;10.040;2024-02-21T08:31:25;15.15;;;5.18;;
7563;SDS011;3823;53.586;10.040;2024-02-21T08:33:56;6.70;;;3.55;;
7563;SDS011;3823;53.586;10.040;2024-02-21T08:36:27;8.25;;;4.30;;
7563;SDS011;3823;53.586;10.040;2024-02-21T08:38:54;11.35;;;5.07;;
7563;SDS011;3823;53.586;10.040;2024-02-21T08:41:19;6.80;;;3.70;;
7563;SDS011;3823;53.586;10.040;2024-02-21T08:43:47;17.45;;;6.10;;
7563;SDS011;3823;53.586;10.040;2024-02-21T08:46:14;7.90;;;4.05;;
7563;SDS011;3823;53.586;10.040;2024-02-21T08:48:40;14.20;;;4.07;;
7563;SDS011;3823;53.586;10.040;2024-02-21T08:51:06;18.10;;;4.57;;
7563;SDS011;3823;53.586;10.040;2024-02-21T08:53:31;20.15;;;5.22;;
7563;SDS011;3823;53.586;10.040;2024-02-21T08:55:57;9.63;;;3.38;;
7563;SDS011;3823;53.586;10.040;2024-02-21T08:58:24;12.90;;;3.88;;
7563;SDS011;3823;53.586;10.040;2024-02-21T09:00:51;19.35;;;4.15;;
7563;SDS011;3823;53.586;10.040;2024-02-21T09:03:17;13.50;;;4.95;;
7563;SDS011;3823;53.586;10.040;2024-02-21T09:05:44;9.57;;;4.60;;
7563;SDS011;3823;53.586;10.040;2024-02-21T09:08:11;8.00;;;4.45;;
7563;SDS011;3823;53.586;10.040;2024-02-21T09:10:37;7.82;;;3.90;;
7563;SDS011;3823;53.586;10.040;2024-02-21T09:13:02;6.80;;;3.38;;
7563;SDS011;3823;53.586;10.040;2024-02-21T09:15:28;14.75;;;4.60;;
7563;SDS011;3823;53.586;10.040;2024-02-21T09:17:54;11.30;;;3.45;;
7563;SDS011;3823;53.586;10.040;2024-02-21T09:20:19;11.05;;;4.00;;
7563;SDS011;3823;53.586;10.040;2024-02-21T09:22:45;12.23;;;4.35;;
7563;SDS011;3823;53.586;10.040;2024-02-21T09:25:10;12.82;;;4.38;;
7563;SDS011;3823;53.586;10.040;2024-02-21T09:27:37;10.25;;;3.67;;
7563;SDS011;3823;53.586;10.040;2024-02-21T09:30:03;13.80;;;4.88;;
7563;SDS011;3823;53.586;10.040;2024-02-21T09:32:30;5.88;;;3.42;;
7563;SDS011;3823;53.586;10.040;2024-02-21T09:34:57;9.55;;;4.07;;
7563;SDS011;3823;53.586;10.040;2024-02-21T09:37:23;9.32;;;3.97;;
7563;SDS011;3823;53.586;10.040;2024-02-21T09:39:49;9.32;;;3.53;;
7563;SDS011;3823;53.586;10.040;2024-02-21T09:42:16;9.23;;;3.95;;
7563;SDS011;3823;53.586;10.040;2024-02-21T09:44:45;6.22;;;2.88;;
7563;SDS011;3823;53.586;10.040;2024-02-21T09:47:19;7.18;;;3.08;;
7563;SDS011;3823;53.586;10.040;2024-02-21T09:50:01;9.52;;;6.03;;
7563;SDS011;3823;53.586;10.040;2024-02-21T09:52:29;12.70;;;4.22;;
7563;SDS011;3823;53.586;10.040;2024-02-21T09:54:55;5.88;;;3.38;;
7563;SDS011;3823;53.586;10.040;2024-02-21T09:57:23;8.93;;;3.10;;
7563;SDS011;3823;53.586;10.040;2024-02-21T09:59:49;4.88;;;2.55;;
7563;SDS011;3823;53.586;10.040;2024-02-21T10:02:16;8.20;;;3.40;;
7563;SDS011;3823;53.586;10.040;2024-02-21T10:04:42;7.10;;;3.95;;
7563;SDS011;3823;53.586;10.040;2024-02-21T10:07:08;5.97;;;3.50;;
7563;SDS011;3823;53.586;10.040;2024-02-21T10:09:34;6.47;;;3.10;;
7563;SDS011;3823;53.586;10.040;2024-02-21T10:12:09;4.53;;;4.03;;
7563;SDS011;3823;53.586;10.040;2024-02-21T10:14:35;3.80;;;3.47;;
7563;SDS011;3823;53.586;10.040;2024-02-21T10:17:01;8.85;;;4.20;;
7563;SDS011;3823;53.586;10.040;2024-02-21T10:19:27;9.52;;;5.18;;
7563;SDS011;3823;53.586;10.040;2024-02-21T10:22:03;8.70;;;5.93;;
7563;SDS011;3823;53.586;10.040;2024-02-21T10:24:31;15.25;;;5.82;;
7563;SDS011;3823;53.586;10.040;2024-02-21T10:27:03;9.52;;;7.05;;
7563;SDS011;3823;53.586;10.040;2024-02-21T10:29:33;10.75;;;7.38;;
7563;SDS011;3823;53.586;10.040;2024-02-21T10:32:08;14.32;;;8.18;;
7563;SDS011;3823;53.586;10.040;2024-02-21T10:34:36;16.48;;;10.65;;
7563;SDS011;3823;53.586;10.040;2024-02-21T10:37:07;20.75;;;13.75;;
7563;SDS011;3823;53.586;10.040;2024-02-21T10:39:37;24.08;;;13.63;;
7563;SDS011;3823;53.586;10.040;2024-02-21T10:42:04;26.77;;;14.35;;
7563;SDS011;3823;53.586;10.040;2024-02-21T10:44:30;24.95;;;13.00;;
7563;SDS011;3823;53.586;10.040;2024-02-21T10:46:57;29.83;;;15.50;;
7563;SDS011;3823;53.586;10.040;2024-02-21T10:49:23;26.67;;;13.20;;
7563;SDS011;3823;53.586;10.040;2024-02-21T10:51:50;27.25;;;15.52;;
7563;SDS011;3823;53.586;10.040;2024-02-21T10:57:05;29.48;;;17.05;;
7563;SDS011;3823;53.586;10.040;2024-02-21T10:59:33;27.60;;;15.98;;
7563;SDS011;3823;53.586;10.040;2024-02-21T11:02:02;24.92;;;15.38;;
7563;SDS011;3823;53.586;10.040;2024-02-21T11:04:27;29.65;;;15.05;;
7563;SDS011;3823;53.586;10.040;2024-02-21T11:06:55;29.80;;;14.75;;
7563;SDS011;3823;53.586;10.040;2024-02-21T11:09:29;30.13;;;15.55;;
7563;SDS011;3823;53.586;10.040;2024-02-21T11:11:57;27.95;;;15.70;;
7563;SDS011;3823;53.586;10.040;2024-02-21T11:14:25;33.38;;;15.95;;
7563;SDS011;3823;53.586;10.040;2024-02-21T11:16:51;30.58;;;15.60;;
7563;SDS011;3823;53.586;10.040;2024-02-21T11:19:21;28.58;;;14.02;;
7563;SDS011;3823;53.586;10.040;2024-02-21T11:21:48;25.30;;;12.57;;
7563;SDS011;3823;53.586;10.040;2024-02-21T11:24:36;24.45;;;13.15;;
7563;SDS011;3823;53.586;10.040;2024-02-21T11:29:42;29.75;;;14.27;;
7563;SDS011;3823;53.586;10.040;2024-02-21T11:32:14;26.40;;;14.15;;
7563;SDS011;3823;53.586;10.040;2024-02-21T11:34:40;21.10;;;11.93;;
7563;SDS011;3823;53.586;10.040;2024-02-21T11:37:17;23.33;;;12.40;;
7563;SDS011;3823;53.586;10.040;2024-02-21T11:39:42;28.63;;;13.75;;
7563;SDS011;3823;53.586;10.040;2024-02-21T11:42:08;19.25;;;10.93;;
7563;SDS011;3823;53.586;10.040;2024-02-21T11:44:35;20.25;;;12.73;;
7563;SDS011;3823;53.586;10.040;2024-02-21T11:47:03;18.73;;;10.80;;
7563;SDS011;3823;53.586;10.040;2024-02-21T11:49:29;16.02;;;10.48;;
7563;SDS011;3823;53.586;10.040;2024-02-21T11:52:01;21.05;;;11.32;;
7563;SDS011;3823;53.586;10.040;2024-02-21T11:54:30;17.40;;;10.77;;
7563;SDS011;3823;53.586;10.040;2024-02-21T11:56:56;16.80;;;10.88;;
7563;SDS011;3823;53.586;10.040;2024-02-21T11:59:22;22.52;;;13.10;;
7563;SDS011;3823;53.586;10.040;2024-02-21T12:01:50;17.02;;;10.20;;
7563;SDS011;3823;53.586;10.040;2024-02-21T12:04:17;21.92;;;11.02;;
7563;SDS011;3823;53.586;10.040;2024-02-21T12:06:48;20.02;;;9.88;;
7563;SDS011;3823;53.586;10.040;2024-02-21T12:09:15;20.35;;;10.35;;
7563;SDS011;3823;53.586;10.040;2024-02-21T12:11:44;17.90;;;9.88;;
7563;SDS011;3823;53.586;10.040;2024-02-21T12:14:10;24.88;;;10.27;;
7563;SDS011;3823;53.586;10.040;2024-02-21T12:16:36;13.65;;;9.63;;
7563;SDS011;3823;53.586;10.040;2024-02-21T12:19:04;21.58;;;11.35;;
7563;SDS011;3823;53.586;10.040;2024-02-21T12:21:30;19.98;;;10.43;;
7563;SDS011;3823;53.586;10.040;2024-02-21T12:23:58;17.38;;;10.85;;
7563;SDS011;3823;53.586;10.040;2024-02-21T12:26:24;18.70;;;9.50;;
7563;SDS011;3823;53.586;10.040;2024-02-21T12:28:50;17.77;;;9.88;;
7563;SDS011;3823;53.586;10.040;2024-02-21T12:31:16;16.35;;;10.48;;
7563;SDS011;3823;53.586;10.040;2024-02-21T12:33:42;15.93;;;9.57;;
7563;SDS011;3823;53.586;10.040;2024-02-21T12:36:08;19.75;;;10.75;;
7563;SDS011;3823;53.586;10.040;2024-02-21T12:38:34;18.75;;;10.18;;
7563;SDS011;3823;53.586;10.040;2024-02-21T12:41:02;18.67;;;8.77;;
7563;SDS011;3823;53.586;10.040;2024-02-21T12:43:28;15.35;;;9.77;;
7563;SDS011;3823;53.586;10.040;2024-02-21T12:45:54;19.35;;;9.73;;
7563;SDS011;3823;53.586;10.040;2024-02-21T12:48:19;20.98;;;11.45;;
7563;SDS011;3823;53.586;10.040;2024-02-21T12:50:51;23.10;;;12.68;;
7563;SDS011;3823;53.586;10.040;2024-02-21T12:53:17;17.33;;;10.55;;
7563;SDS011;3823;53.586;10.040;2024-02-21T12:55:46;20.80;;;12.40;;
7563;SDS011;3823;53.586;10.040;2024-02-21T12:58:12;21.15;;;11.93;;
7563;SDS011;3823;53.586;10.040;2024-02-21T13:00:38;24.00;;;12.00;;
7563;SDS011;3823;53.586;10.040;2024-02-21T13:03:04;26.92;;;12.77;;
7563;SDS011;3823;53.586;10.040;2024-02-21T13:05:30;22.52;;;12.75;;
7563;SDS011;3823;53.586;10.040;2024-02-21T13:07:57;21.00;;;11.63;;
7563;SDS011;3823;53.586;10.040;2024-02-21T13:10:23;24.63;;;12.63;;
7563;SDS011;3823;53.586;10.040;2024-02-21T13:12:48;20.17;;;11.95;;
7563;SDS011;3823;53.586;10.040;2024-02-21T13:15:14;26.98;;;13.48;;
7563;SDS011;3823;53.586;10.040;2024-02-21T13:17:41;25.30;;;13.15;;
7563;SDS011;3823;53.586;10.040;2024-02-21T13:20:07;21.27;;;11.32;;
7563;SDS011;3823;53.586;10.040;2024-02-21T13:22:33;26.85;;;12.77;;
7563;SDS011;3823;53.586;10.040;2024-02-21T13:24:59;21.70;;;12.88;;
7563;SDS011;3823;53.586;10.040;2024-02-21T13:27:25;23.90;;;12.77;;
7563;SDS011;3823;53.586;10.040;2024-02-21T13:29:51;19.58;;;12.45;;
7563;SDS011;3823;53.586;10.040;2024-02-21T13:32:18;17.63;;;11.98;;
7563;SDS011;3823;53.586;10.040;2024-02-21T13:34:43;30.63;;;14.05;;
7563;SDS011;3823;53.586;10.040;2024-02-21T13:37:09;20.70;;;10.90;;
7563;SDS011;3823;53.586;10.040;2024-02-21T13:39:35;17.00;;;12.32;;
7563;SDS011;3823;53.586;10.040;2024-02-21T13:42:01;25.63;;;12.02;;
7563;SDS011;3823;53.586;10.040;2024-02-21T13:44:27;29.30;;;12.38;;
7563;SDS011;3823;53.586;10.040;2024-02-21T13:46:53;22.23;;;13.45;;
7563;SDS011;3823;53.586;10.040;2024-02-21T13:49:18;25.88;;;12.32;;
7563;SDS011;3823;53.586;10.040;2024-02-21T13:51:44;29.92;;;11.30;;
7563;SDS011;3823;53.586;10.040;2024-02-21T13:54:10;15.48;;;10.63;;
7563;SDS011;3823;53.586;10.040;2024-02-21T13:56:36;19.42;;;11.75;;
7563;SDS011;3823;53.586;10.040;2024-02-21T13:59:02;19.27;;;10.75;;
7563;SDS011;3823;53.586;10.040;2024-02-21T14:01:28;22.27;;;12.00;;
7563;SDS011;3823;53.586;10.040;2024-02-21T14:03:54;18.95;;;11.02;;
7563;SDS011;3823;53.586;10.040;2024-02-21T14:06:20;18.35;;;10.82;;
7563;SDS011;3823;53.586;10.040;2024-02-21T14:08:45;18.20;;;11.57;;
7563;SDS011;3823;53.586;10.040;2024-02-21T14:11:11;19.73;;;11.02;;
7563;SDS011;3823;53.586;10.040;2024-02-21T14:13:36;18.70;;;10.82;;
7563;SDS011;3823;53.586;10.040;2024-02-21T14:16:02;18.75;;;10.70;;
7563;SDS011;3823;53.586;10.040;2024-02-21T14:18:28;18.15;;;10.95;;
7563;SDS011;3823;53.586;10.040;2024-02-21T14:20:53;21.10;;;11.15;;
7563;SDS011;3823;53.586;10.040;2024-02-21T14:23:19;17.25;;;11.20;;
7563;SDS011;3823;53.586;10.040;2024-02-21T14:25:44;20.67;;;11.60;;
7563;SDS011;3823;53.586;10.040;2024-02-21T14:28:10;17.98;;;10.52;;
7563;SDS011;3823;53.586;10.040;2024-02-21T14:30:35;19.65;;;9.65;;
7563;SDS011;3823;53.586;10.040;2024-02-21T14:33:01;18.20;;;11.13;;
7563;SDS011;3823;53.586;10.040;2024-02-21T14:35:27;17.67;;;11.18;;
7563;SDS011;3823;53.586;10.040;2024-02-21T14:37:52;17.42;;;10.77;;
7563;SDS011;3823;53.586;10.040;2024-02-21T14:40:20;20.63;;;10.85;;
7563;SDS011;3823;53.586;10.040;2024-02-21T14:42:46;13.27;;;10.13;;
7563;SDS011;3823;53.586;10.040;2024-02-21T14:45:11;16.98;;;9.10;;
7563;SDS011;3823;53.586;10.040;2024-02-21T14:47:38;19.48;;;10.80;;
7563;SDS011;3823;53.586;10.040;2024-02-21T14:50:04;11.35;;;8.73;;
7563;SDS011;3823;53.586;10.040;2024-02-21T14:52:30;14.85;;;9.73;;
7563;SDS011;3823;53.586;10.040;2024-02-21T14:54:57;17.33;;;9.45;;